sensor_id;sensor_type;location;lat;lon;timestamp;pressure;altitude;pressure_sealevel;temperature;humidity
7407;BME280;3745;56.964;24.128;2023-05-17T00:00:10;101097.22;;;13.01;100.00
7407;BME280;3745;56.964;24.128;2023-05-17T00:02:35;101138.88;;;13.18;100.00
7407;BME280;3745;56.964;24.128;2023-05-17T00:05:01;101109.78;;;12.87;100.00
7407;BME280;3745;56.964;24.128;2023-05-17T00:07:27;101098.78;;;12.90;100.00
7407;BME280;3745;56.964;24.128;2023-05-17T00:09:52;101153.28;;;13.19;100.00
7407;BME280;3745;56.964;24.128;2023-05-17T00:12:18;101163.50;;;13.25;100.00
7407;BME280;3745;56.964;24.128;2023-05-17T00:14:44;101154.91;;;13.11;100.00
7407;BME280;3745;56.964;24.128;2023-05-17T00:17:09;101172.78;;;13.20;100.00
7407;BME280;3745;56.964;24.128;2023-05-17T00:19:35;101186.34;;;13.21;100.00
7407;BME280;3745;56.964;24.128;2023-05-17T00:22:00;101190.59;;;13.23;100.00
7407;BME280;3745;56.964;24.128;2023-05-17T00:24:26;101177.00;;;13.18;100.00
7407;BME280;3745;56.964;24.128;2023-05-17T00:26:51;101159.97;;;13.08;100.00
7407;BME280;3745;56.964;24.128;2023-05-17T00:29:17;101092.69;;;12.71;100.00
7407;BME280;3745;56.964;24.128;2023-05-17T00:31:42;101173.59;;;13.16;100.00
7407;BME280;3745;56.964;24.128;2023-05-17T00:34:08;101180.31;;;13.11;100.00
7407;BME280;3745;56.964;24.128;2023-05-17T00:36:33;101164.94;;;12.99;100.00
7407;BME280;3745;56.964;24.128;2023-05-17T00:38:59;101180.38;;;13.17;100.00
7407;BME280;3745;56.964;24.128;2023-05-17T00:41:25;101158.97;;;12.95;100.00
7407;BME280;3745;56.964;24.128;2023-05-17T00:43:50;101120.69;;;12.76;100.00
7407;BME280;3745;56.964;24.128;2023-05-17T00:46:16;101064.53;;;12.47;100.00
7407;BME280;3745;56.964;24.128;2023-05-17T00:48:42;101166.75;;;13.09;100.00
7407;BME280;3745;56.964;24.128;2023-05-17T00:51:08;101168.50;;;13.13;100.00
7407;BME280;3745;56.964;24.128;2023-05-17T00:53:34;101180.41;;;13.23;100.00
7407;BME280;3745;56.964;24.128;2023-05-17T00:56:02;101184.72;;;13.26;100.00
7407;BME280;3745;56.964;24.128;2023-05-17T00:58:28;101138.53;;;12.83;100.00
7407;BME280;3745;56.964;24.128;2023-05-17T01:00:54;101194.72;;;13.14;100.00
7407;BME280;3745;56.964;24.128;2023-05-17T01:03:20;101180.84;;;12.83;100.00
7407;BME280;3745;56.964;24.128;2023-05-17T01:05:49;101207.31;;;13.03;100.00
7407;BME280;3745;56.964;24.128;2023-05-17T01:08:15;101203.88;;;12.95;100.00
7407;BME280;3745;56.964;24.128;2023-05-17T01:13:39;101215.88;;;13.11;100.00
7407;BME280;3745;56.964;24.128;2023-05-17T01:16:16;101166.25;;;12.61;100.00
7407;BME280;3745;56.964;24.128;2023-05-17T01:18:52;101193.66;;;12.92;100.00
7407;BME280;3745;56.964;24.128;2023-05-17T01:24:27;101180.00;;;12.81;100.00
7407;BME280;3745;56.964;24.128;2023-05-17T01:26:55;101188.34;;;12.71;100.00
7407;BME280;3745;56.964;24.128;2023-05-17T01:29:25;101227.41;;;12.82;100.00
7407;BME280;3745;56.964;24.128;2023-05-17T01:31:53;101195.00;;;12.60;100.00
7407;BME280;3745;56.964;24.128;2023-05-17T01:34:27;101177.94;;;12.49;100.00
7407;BME280;3745;56.964;24.128;2023-05-17T01:36:53;101224.00;;;12.80;100.00
7407;BME280;3745;56.964;24.128;2023-05-17T01:39:19;101166.97;;;12.50;100.00
7407;BME280;3745;56.964;24.128;2023-05-17T01:42:06;101225.63;;;12.75;100.00
7407;BME280;3745;56.964;24.128;2023-05-17T01:44:42;101232.28;;;12.64;100.00
7407;BME280;3745;56.964;24.128;2023-05-17T01:47:32;101203.34;;;12.49;100.00
7407;BME280;3745;56.964;24.128;2023-05-17T01:50:05;101229.00;;;12.74;100.00
7407;BME280;3745;56.964;24.128;2023-05-17T01:52:46;101234.19;;;12.83;100.00
7407;BME280;3745;56.964;24.128;2023-05-17T01:55:42;101230.75;;;12.78;100.00
7407;BME280;3745;56.964;24.128;2023-05-17T01:58:09;101230.75;;;12.78;100.00
7407;BME280;3745;56.964;24.128;2023-05-17T02:00:37;101239.22;;;12.80;100.00
7407;BME280;3745;56.964;24.128;2023-05-17T02:03:04;101215.38;;;12.66;100.00
7407;BME280;3745;56.964;24.128;2023-05-17T02:05:30;101237.41;;;12.67;100.00
7407;BME280;3745;56.964;24.128;2023-05-17T02:07:55;101231.50;;;12.69;100.00
7407;BME280;3745;56.964;24.128;2023-05-17T02:10:21;101223.00;;;12.64;100.00
7407;BME280;3745;56.964;24.128;2023-05-17T02:12:47;101235.72;;;12.69;100.00
7407;BME280;3745;56.964;24.128;2023-05-17T02:15:12;101239.16;;;12.74;100.00
7407;BME280;3745;56.964;24.128;2023-05-17T02:17:40;101205.03;;;12.50;100.00
7407;BME280;3745;56.964;24.128;2023-05-17T02:20:07;101239.88;;;12.61;100.00
7407;BME280;3745;56.964;24.128;2023-05-17T02:22:33;101172.53;;;12.22;100.00
7407;BME280;3745;56.964;24.128;2023-05-17T02:24:58;101216.88;;;12.48;100.00
7407;BME280;3745;56.964;24.128;2023-05-17T02:27:24;101244.13;;;12.65;100.00
7407;BME280;3745;56.964;24.128;2023-05-17T02:29:49;101154.00;;;12.26;100.00
7407;BME280;3745;56.964;24.128;2023-05-17T02:32:15;101239.09;;;12.68;100.00
7407;BME280;3745;56.964;24.128;2023-05-17T02:34:40;101205.00;;;12.47;100.00
7407;BME280;3745;56.964;24.128;2023-05-17T02:37:06;101238.22;;;12.66;100.00
7407;BME280;3745;56.964;24.128;2023-05-17T02:39:32;101240.78;;;12.66;100.00
7407;BME280;3745;56.964;24.128;2023-05-17T02:41:58;101231.63;;;12.80;100.00
7407;BME280;3745;56.964;24.128;2023-05-17T02:44:23;101179.41;;;12.29;100.00
7407;BME280;3745;56.964;24.128;2023-05-17T02:46:49;101241.59;;;12.65;100.00
7407;BME280;3745;56.964;24.128;2023-05-17T02:49:14;101244.13;;;12.65;100.00
7407;BME280;3745;56.964;24.128;2023-05-17T02:51:40;101247.56;;;12.67;100.00
7407;BME280;3745;56.964;24.128;2023-05-17T02:54:05;101240.63;;;12.54;100.00
7407;BME280;3745;56.964;24.128;2023-05-17T02:56:31;101248.34;;;12.63;100.00
7407;BME280;3745;56.964;24.128;2023-05-17T02:58:57;101218.44;;;12.40;100.00
7407;BME280;3745;56.964;24.128;2023-05-17T03:01:26;101242.38;;;12.58;100.00
7407;BME280;3745;56.964;24.128;2023-05-17T03:03:51;101146.94;;;12.04;100.00
7407;BME280;3745;56.964;24.128;2023-05-17T03:06:17;101242.44;;;12.64;100.00
7407;BME280;3745;56.964;24.128;2023-05-17T03:08:42;101223.72;;;12.56;100.00
7407;BME280;3745;56.964;24.128;2023-05-17T03:11:08;101212.56;;;12.43;100.00
7407;BME280;3745;56.964;24.128;2023-05-17T03:13:33;101237.41;;;12.67;100.00
7407;BME280;3745;56.964;24.128;2023-05-17T03:15:59;101236.56;;;12.66;100.00
7407;BME280;3745;56.964;24.128;2023-05-17T03:18:25;101233.22;;;12.70;100.00
7407;BME280;3745;56.964;24.128;2023-05-17T03:20:50;101189.69;;;12.41;100.00
7407;BME280;3745;56.964;24.128;2023-05-17T03:23:16;101226.13;;;12.46;100.00
7407;BME280;3745;56.964;24.128;2023-05-17T03:25:41;101238.88;;;12.49;100.00
7407;BME280;3745;56.964;24.128;2023-05-17T03:28:07;101186.09;;;12.24;100.00
7407;BME280;3745;56.964;24.128;2023-05-17T03:30:32;101201.50;;;12.36;100.00
7407;BME280;3745;56.964;24.128;2023-05-17T03:32:58;101227.06;;;12.52;100.00
7407;BME280;3745;56.964;24.128;2023-05-17T03:35:23;101267.88;;;12.67;100.00
7407;BME280;3745;56.964;24.128;2023-05-17T03:37:49;101263.75;;;12.75;100.00
7407;BME280;3745;56.964;24.128;2023-05-17T03:40:14;101256.09;;;12.72;100.00
7407;BME280;3745;56.964;24.128;2023-05-17T03:42:40;101268.97;;;12.87;100.00
7407;BME280;3745;56.964;24.128;2023-05-17T03:45:06;101260.50;;;12.89;100.00
7407;BME280;3745;56.964;24.128;2023-05-17T03:47:32;101261.47;;;12.99;100.00
7407;BME280;3745;56.964;24.128;2023-05-17T03:49:57;101228.81;;;12.59;100.00
7407;BME280;3745;56.964;24.128;2023-05-17T03:52:23;101268.00;;;12.76;100.00
7407;BME280;3745;56.964;24.128;2023-05-17T03:54:48;101250.91;;;12.63;100.00
7407;BME280;3745;56.964;24.128;2023-05-17T03:57:15;101269.38;;;12.52;100.00
7407;BME280;3745;56.964;24.128;2023-05-17T03:59:41;101230.25;;;12.35;100.00
7407;BME280;3745;56.964;24.128;2023-05-17T04:02:06;101273.19;;;12.85;100.00
7407;BME280;3745;56.964;24.128;2023-05-17T04:04:32;101234.16;;;12.80;100.00
7407;BME280;3745;56.964;24.128;2023-05-17T04:06:57;101245.38;;;12.97;100.00
7407;BME280;3745;56.964;24.128;2023-05-17T04:09:23;101263.25;;;13.06;100.00
7407;BME280;3745;56.964;24.128;2023-05-17T04:11:48;101250.53;;;13.06;100.00
7407;BME280;3745;56.964;24.128;2023-05-17T04:14:14;101262.63;;;13.22;100.00
7407;BME280;3745;56.964;24.128;2023-05-17T04:16:40;101241.00;;;12.87;100.00
7407;BME280;3745;56.964;24.128;2023-05-17T04:19:05;101252.91;;;12.88;100.00
7407;BME280;3745;56.964;24.128;2023-05-17T04:21:31;101242.75;;;12.91;100.00
7407;BME280;3745;56.964;24.128;2023-05-17T04:23:56;101246.06;;;12.84;100.00
7407;BME280;3745;56.964;24.128;2023-05-17T04:26:22;101271.53;;;12.90;100.00
7407;BME280;3745;56.964;24.128;2023-05-17T04:28:48;101271.44;;;12.81;100.00
7407;BME280;3745;56.964;24.128;2023-05-17T04:31:14;101215.09;;;12.41;100.00
7407;BME280;3745;56.964;24.128;2023-05-17T04:33:43;101283.34;;;12.85;100.00
7407;BME280;3745;56.964;24.128;2023-05-17T04:36:09;101287.06;;;13.14;100.00
7407;BME280;3745;56.964;24.128;2023-05-17T04:38:34;101258.13;;;13.03;100.00
7407;BME280;3745;56.964;24.128;2023-05-17T04:41:04;101254.97;;;13.19;100.00
7407;BME280;3745;56.964;24.128;2023-05-17T04:43:31;101266.03;;;13.27;100.00
7407;BME280;3745;56.964;24.128;2023-05-17T04:45:57;101248.28;;;13.30;100.00
7407;BME280;3745;56.964;24.128;2023-05-17T04:48:24;101268.78;;;13.48;100.00
7407;BME280;3745;56.964;24.128;2023-05-17T04:50:52;101289.28;;;13.67;100.00
7407;BME280;3745;56.964;24.128;2023-05-17T04:53:18;101251.78;;;13.44;100.00
7407;BME280;3745;56.964;24.128;2023-05-17T04:55:44;101287.44;;;13.50;100.00
7407;BME280;3745;56.964;24.128;2023-05-17T04:58:10;101300.91;;;13.37;100.00
7407;BME280;3745;56.964;24.128;2023-05-17T05:00:36;101294.22;;;13.48;100.00
7407;BME280;3745;56.964;24.128;2023-05-17T05:03:01;101299.41;;;13.61;100.00
7407;BME280;3745;56.964;24.128;2023-05-17T05:05:29;101296.09;;;13.68;100.00
7407;BME280;3745;56.964;24.128;2023-05-17T05:07:56;101295.34;;;13.79;100.00
7407;BME280;3745;56.964;24.128;2023-05-17T05:10:22;101257.84;;;13.58;100.00
7407;BME280;3745;56.964;24.128;2023-05-17T05:12:48;101297.09;;;13.86;100.00
7407;BME280;3745;56.964;24.128;2023-05-17T05:15:14;101285.09;;;13.73;100.00
7407;BME280;3745;56.964;24.128;2023-05-17T05:17:40;101302.13;;;13.77;100.00
7407;BME280;3745;56.964;24.128;2023-05-17T05:20:06;101261.84;;;13.32;100.00
7407;BME280;3745;56.964;24.128;2023-05-17T05:22:32;101300.38;;;13.72;100.00
7407;BME280;3745;56.964;24.128;2023-05-17T05:24:58;101299.50;;;13.73;100.00
7407;BME280;3745;56.964;24.128;2023-05-17T05:27:24;101294.41;;;13.68;100.00
7407;BME280;3745;56.964;24.128;2023-05-17T05:29:49;101304.69;;;13.82;100.00
7407;BME280;3745;56.964;24.128;2023-05-17T05:32:15;101324.91;;;13.67;100.00
7407;BME280;3745;56.964;24.128;2023-05-17T05:34:41;101318.22;;;13.78;100.00
7407;BME280;3745;56.964;24.128;2023-05-17T05:37:07;101307.28;;;13.86;100.00
7407;BME280;3745;56.964;24.128;2023-05-17T05:39:32;101308.28;;;14.08;100.00
7407;BME280;3745;56.964;24.128;2023-05-17T05:41:58;101324.34;;;13.99;100.00
7407;BME280;3745;56.964;24.128;2023-05-17T05:44:24;101297.09;;;13.88;100.00
7407;BME280;3745;56.964;24.128;2023-05-17T05:46:49;101294.34;;;13.64;100.00
7407;BME280;3745;56.964;24.128;2023-05-17T05:49:15;101232.16;;;13.28;100.00
7407;BME280;3745;56.964;24.128;2023-05-17T05:51:40;101333.59;;;13.90;100.00
7407;BME280;3745;56.964;24.128;2023-05-17T05:54:06;101301.31;;;13.83;100.00
7407;BME280;3745;56.964;24.128;2023-05-17T05:56:31;101335.56;;;14.21;100.00
7407;BME280;3745;56.964;24.128;2023-05-17T05:58:57;101342.22;;;14.10;100.00
7407;BME280;3745;56.964;24.128;2023-05-17T06:01:23;101329.50;;;14.05;100.00
7407;BME280;3745;56.964;24.128;2023-05-17T06:03:49;101344.00;;;14.20;100.00
7407;BME280;3745;56.964;24.128;2023-05-17T06:06:15;101340.41;;;13.97;100.00
7407;BME280;3745;56.964;24.128;2023-05-17T06:08:44;101297.72;;;13.60;100.00
7407;BME280;3745;56.964;24.128;2023-05-17T06:11:12;101352.31;;;13.98;100.00
7407;BME280;3745;56.964;24.128;2023-05-17T06:13:38;101352.25;;;13.92;100.00
7407;BME280;3745;56.964;24.128;2023-05-17T06:16:04;101351.31;;;13.78;100.00
7407;BME280;3745;56.964;24.128;2023-05-17T06:18:30;101299.31;;;13.51;100.00
7407;BME280;3745;56.964;24.128;2023-05-17T06:20:56;101356.59;;;14.03;100.00
7407;BME280;3745;56.964;24.128;2023-05-17T06:23:21;101332.69;;;13.83;100.00
7407;BME280;3745;56.964;24.128;2023-05-17T06:25:47;101367.69;;;14.10;100.00
7407;BME280;3745;56.964;24.128;2023-05-17T06:28:12;101370.16;;;14.01;100.00
7407;BME280;3745;56.964;24.128;2023-05-17T06:30:38;101336.22;;;13.99;100.00
7407;BME280;3745;56.964;24.128;2023-05-17T06:33:03;101369.53;;;14.26;100.00
7407;BME280;3745;56.964;24.128;2023-05-17T06:35:29;101362.69;;;14.22;100.00
7407;BME280;3745;56.964;24.128;2023-05-17T06:37:55;101318.34;;;13.90;100.00
7407;BME280;3745;56.964;24.128;2023-05-17T06:40:21;101372.88;;;14.22;100.00
7407;BME280;3745;56.964;24.128;2023-05-17T06:42:47;101379.84;;;14.41;100.00
7407;BME280;3745;56.964;24.128;2023-05-17T06:45:12;101397.69;;;14.46;100.00
7407;BME280;3745;56.964;24.128;2023-05-17T06:47:38;101366.28;;;14.42;100.00
7407;BME280;3745;56.964;24.128;2023-05-17T06:50:04;101387.72;;;14.76;100.00
7407;BME280;3745;56.964;24.128;2023-05-17T06:52:30;101395.41;;;14.90;100.00
7407;BME280;3745;56.964;24.128;2023-05-17T06:54:55;101401.41;;;14.99;100.00
7407;BME280;3745;56.964;24.128;2023-05-17T06:57:21;101405.59;;;14.84;100.00
7407;BME280;3745;56.964;24.128;2023-05-17T06:59:48;101407.34;;;14.94;100.00
7407;BME280;3745;56.964;24.128;2023-05-17T07:02:14;101408.84;;;14.64;100.00
7407;BME280;3745;56.964;24.128;2023-05-17T07:04:40;101419.03;;;14.64;100.00
7407;BME280;3745;56.964;24.128;2023-05-17T07:07:05;101427.44;;;14.48;100.00
7407;BME280;3745;56.964;24.128;2023-05-17T07:09:31;101405.34;;;14.47;100.00
7407;BME280;3745;56.964;24.128;2023-05-17T07:11:56;101412.19;;;14.51;100.00
7407;BME280;3745;56.964;24.128;2023-05-17T07:14:22;101355.00;;;14.16;100.00
7407;BME280;3745;56.964;24.128;2023-05-17T07:16:47;101424.19;;;14.74;100.00
7407;BME280;3745;56.964;24.128;2023-05-17T07:19:13;101372.34;;;14.65;100.00
7407;BME280;3745;56.964;24.128;2023-05-17T07:21:39;101424.47;;;15.16;100.00
7407;BME280;3745;56.964;24.128;2023-05-17T07:24:06;101436.41;;;15.35;100.00
7407;BME280;3745;56.964;24.128;2023-05-17T07:26:32;101400.59;;;15.08;100.00
7407;BME280;3745;56.964;24.128;2023-05-17T07:28:57;101410.94;;;15.38;100.00
7407;BME280;3745;56.964;24.128;2023-05-17T07:31:23;101384.44;;;15.00;100.00
7407;BME280;3745;56.964;24.128;2023-05-17T07:33:48;101427.94;;;15.39;100.00
7407;BME280;3745;56.964;24.128;2023-05-17T07:36:14;101431.34;;;15.38;100.00
7407;BME280;3745;56.964;24.128;2023-05-17T07:38:39;101416.00;;;15.29;100.00
7407;BME280;3745;56.964;24.128;2023-05-17T07:41:06;101443.31;;;15.51;100.00
7407;BME280;3745;56.964;24.128;2023-05-17T07:43:37;101443.25;;;15.36;100.00
7407;BME280;3745;56.964;24.128;2023-05-17T07:46:03;101446.63;;;15.35;100.00
7407;BME280;3745;56.964;24.128;2023-05-17T07:48:29;101407.47;;;15.24;100.00
7407;BME280;3745;56.964;24.128;2023-05-17T07:50:55;101397.25;;;15.18;100.00
7407;BME280;3745;56.964;24.128;2023-05-17T07:53:22;101426.22;;;15.35;100.00
7407;BME280;3745;56.964;24.128;2023-05-17T07:55:48;101425.41;;;15.35;100.00
7407;BME280;3745;56.964;24.128;2023-05-17T07:58:13;101410.94;;;15.44;100.00
7407;BME280;3745;56.964;24.128;2023-05-17T08:00:39;101371.88;;;15.51;100.00
7407;BME280;3745;56.964;24.128;2023-05-17T08:03:06;101433.22;;;15.97;100.00
7407;BME280;3745;56.964;24.128;2023-05-17T08:05:32;101433.16;;;15.66;100.00
7407;BME280;3745;56.964;24.128;2023-05-17T08:07:58;101441.72;;;15.84;100.00
7407;BME280;3745;56.964;24.128;2023-05-17T08:10:25;101429.75;;;15.55;100.00
7407;BME280;3745;56.964;24.128;2023-05-17T08:12:52;101447.63;;;15.72;100.00
7407;BME280;3745;56.964;24.128;2023-05-17T08:15:18;101449.34;;;15.68;100.00
7407;BME280;3745;56.964;24.128;2023-05-17T08:17:43;101449.38;;;15.71;100.00
7407;BME280;3745;56.964;24.128;2023-05-17T08:20:09;101410.22;;;15.79;100.00
7407;BME280;3745;56.964;24.128;2023-05-17T08:22:35;101424.75;;;16.10;100.00
7407;BME280;3745;56.964;24.128;2023-05-17T08:25:02;101448.59;;;16.39;100.00
7407;BME280;3745;56.964;24.128;2023-05-17T08:27:27;101409.41;;;16.16;100.00
7407;BME280;3745;56.964;24.128;2023-05-17T08:29:55;101443.50;;;16.21;100.00
7407;BME280;3745;56.964;24.128;2023-05-17T08:32:22;101445.16;;;16.10;100.00
7407;BME280;3745;56.964;24.128;2023-05-17T08:34:48;101435.84;;;16.30;100.00
7407;BME280;3745;56.964;24.128;2023-05-17T08:37:14;101434.16;;;16.55;100.00
7407;BME280;3745;56.964;24.128;2023-05-17T08:39:40;101445.19;;;16.40;100.00
7407;BME280;3745;56.964;24.128;2023-05-17T08:42:09;101448.59;;;16.36;100.00
7407;BME280;3745;56.964;24.128;2023-05-17T08:44:35;101446.88;;;16.38;100.00
7407;BME280;3745;56.964;24.128;2023-05-17T08:47:02;101416.25;;;16.11;100.00
7407;BME280;3745;56.964;24.128;2023-05-17T08:49:29;101407.72;;;16.04;100.00
7407;BME280;3745;56.964;24.128;2023-05-17T08:51:59;101449.44;;;16.17;100.00
7407;BME280;3745;56.964;24.128;2023-05-17T08:54:37;101383.84;;;15.61;100.00
7407;BME280;3745;56.964;24.128;2023-05-17T08:57:03;101407.69;;;15.82;100.00
7407;BME280;3745;56.964;24.128;2023-05-17T08:59:31;101452.00;;;16.14;100.00
7407;BME280;3745;56.964;24.128;2023-05-17T09:01:59;101442.63;;;16.40;100.00
7407;BME280;3745;56.964;24.128;2023-05-17T09:04:26;101446.91;;;16.56;100.00
7407;BME280;3745;56.964;24.128;2023-05-17T09:06:53;101457.13;;;16.74;100.00
7407;BME280;3745;56.964;24.128;2023-05-17T09:09:19;101407.69;;;16.12;100.00
7407;BME280;3745;56.964;24.128;2023-05-17T09:11:44;101411.13;;;16.17;100.00
7407;BME280;3745;56.964;24.128;2023-05-17T09:14:10;101438.38;;;16.18;100.00
7407;BME280;3745;56.964;24.128;2023-05-17T09:16:36;101431.56;;;16.14;100.00
7407;BME280;3745;56.964;24.128;2023-05-17T09:19:06;101457.13;;;16.41;100.00
7407;BME280;3745;56.964;24.128;2023-05-17T09:21:34;101441.81;;;16.56;100.00
7407;BME280;3745;56.964;24.128;2023-05-17T09:24:00;101427.28;;;16.34;100.00
7407;BME280;3745;56.964;24.128;2023-05-17T09:26:36;101416.22;;;16.38;100.00
7407;BME280;3745;56.964;24.128;2023-05-17T09:29:07;101440.06;;;16.34;100.00
7407;BME280;3745;56.964;24.128;2023-05-17T09:31:32;101438.38;;;16.45;100.00
7407;BME280;3745;56.964;24.128;2023-05-17T09:33:58;101446.91;;;16.71;100.00
7407;BME280;3745;56.964;24.128;2023-05-17T09:36:24;101443.44;;;16.94;100.00
7407;BME280;3745;56.964;24.128;2023-05-17T09:38:59;101467.25;;;17.14;100.00
7407;BME280;3745;56.964;24.128;2023-05-17T09:41:30;101461.31;;;16.98;100.00
7407;BME280;3745;56.964;24.128;2023-05-17T09:44:00;101407.66;;;16.88;100.00
7407;BME280;3745;56.964;24.128;2023-05-17T09:46:32;101452.81;;;17.01;100.00
7407;BME280;3745;56.964;24.128;2023-05-17T09:49:03;101414.47;;;16.90;100.00
7407;BME280;3745;56.964;24.128;2023-05-17T09:51:38;101451.81;;;17.41;100.00
7407;BME280;3745;56.964;24.128;2023-05-17T09:54:08;101451.75;;;17.62;100.00
7407;BME280;3745;56.964;24.128;2023-05-17T09:56:38;101456.88;;;17.64;100.00
7407;BME280;3745;56.964;24.128;2023-05-17T09:59:10;101425.34;;;17.47;100.00
7407;BME280;3745;56.964;24.128;2023-05-17T10:01:39;101400.66;;;17.32;100.00
7407;BME280;3745;56.964;24.128;2023-05-17T10:04:08;101422.91;;;17.21;100.00
7407;BME280;3745;56.964;24.128;2023-05-17T10:06:39;101436.41;;;17.53;100.00
7407;BME280;3745;56.964;24.128;2023-05-17T10:09:05;101433.03;;;17.45;100.00
7407;BME280;3745;56.964;24.128;2023-05-17T10:11:33;101444.03;;;17.74;100.00
7407;BME280;3745;56.964;24.128;2023-05-17T10:14:22;101439.84;;;17.49;100.00
7407;BME280;3745;56.964;24.128;2023-05-17T10:16:52;101445.00;;;17.43;100.00
7407;BME280;3745;56.964;24.128;2023-05-17T10:19:19;101406.72;;;17.11;100.00
7407;BME280;3745;56.964;24.128;2023-05-17T10:21:47;101411.03;;;17.02;100.00
7407;BME280;3745;56.964;24.128;2023-05-17T10:24:14;101463.84;;;17.15;100.00
7407;BME280;3745;56.964;24.128;2023-05-17T10:26:41;101450.22;;;17.19;100.00
7407;BME280;3745;56.964;24.128;2023-05-17T10:29:08;101460.47;;;17.04;100.00
7407;BME280;3745;56.964;24.128;2023-05-17T10:31:34;101375.34;;;16.47;100.00
7407;BME280;3745;56.964;24.128;2023-05-17T10:34:02;101462.16;;;17.11;100.00
7407;BME280;3745;56.964;24.128;2023-05-17T10:36:29;101462.16;;;17.11;100.00
7407;BME280;3745;56.964;24.128;2023-05-17T10:38:55;101428.13;;;16.88;100.00
7407;BME280;3745;56.964;24.128;2023-05-17T10:41:24;101470.75;;;16.76;100.00
7407;BME280;3745;56.964;24.128;2023-05-17T10:43:52;101463.97;;;16.60;100.00
7407;BME280;3745;56.964;24.128;2023-05-17T10:46:19;101449.44;;;16.35;100.00
7407;BME280;3745;56.964;24.128;2023-05-17T10:48:51;101445.19;;;16.37;100.00
7407;BME280;3745;56.964;24.128;2023-05-17T10:51:28;101449.44;;;16.14;100.00
7407;BME280;3745;56.964;24.128;2023-05-17T10:56:29;101469.03;;;16.36;100.00
7407;BME280;3745;56.964;24.128;2023-05-17T11:02:02;101448.59;;;16.75;100.00
7407;BME280;3745;56.964;24.128;2023-05-17T11:04:42;101457.03;;;17.15;100.00
7407;BME280;3745;56.964;24.128;2023-05-17T11:10:02;101404.22;;;17.01;100.00
7407;BME280;3745;56.964;24.128;2023-05-17T11:12:45;101462.00;;;17.65;100.00
7407;BME280;3745;56.964;24.128;2023-05-17T11:15:17;101461.91;;;17.80;100.00
7407;BME280;3745;56.964;24.128;2023-05-17T11:22:57;101451.72;;;17.68;100.00
7407;BME280;3745;56.964;24.128;2023-05-17T11:25:24;101463.69;;;17.54;100.00
7407;BME280;3745;56.964;24.128;2023-05-17T11:27:52;101470.53;;;17.58;100.00
7407;BME280;3745;56.964;24.128;2023-05-17T11:30:27;101452.59;;;17.60;100.00
7407;BME280;3745;56.964;24.128;2023-05-17T11:35:25;101462.94;;;17.29;100.00
7407;BME280;3745;56.964;24.128;2023-05-17T11:37:52;101460.38;;;17.34;100.00
7407;BME280;3745;56.964;24.128;2023-05-17T11:40:26;101424.63;;;17.16;100.00
7407;BME280;3745;56.964;24.128;2023-05-17T11:43:30;101455.28;;;17.34;100.00
7407;BME280;3745;56.964;24.128;2023-05-17T11:45:58;101374.38;;;17.03;100.00
7407;BME280;3745;56.964;24.128;2023-05-17T11:48:29;101451.78;;;17.50;100.00
7407;BME280;3745;56.964;24.128;2023-05-17T11:50:56;101453.44;;;17.63;100.00
7407;BME280;3745;56.964;24.128;2023-05-17T11:53:23;101451.84;;;17.32;100.00
7407;BME280;3745;56.964;24.128;2023-05-17T11:55:50;101463.78;;;17.33;100.00
7407;BME280;3745;56.964;24.128;2023-05-17T11:58:18;101446.69;;;17.38;100.00
7407;BME280;3745;56.964;24.128;2023-05-17T12:00:44;101458.66;;;17.39;100.00
7407;BME280;3745;56.964;24.128;2023-05-17T12:03:21;101456.91;;;17.41;100.00
7407;BME280;3745;56.964;24.128;2023-05-17T12:05:49;101417.75;;;17.27;100.00
7407;BME280;3745;56.964;24.128;2023-05-17T12:08:16;101453.50;;;17.42;100.00
7407;BME280;3745;56.964;24.128;2023-05-17T12:10:47;101440.78;;;17.27;100.00
7407;BME280;3745;56.964;24.128;2023-05-17T12:13:13;101458.63;;;17.45;100.00
7407;BME280;3745;56.964;24.128;2023-05-17T12:15:42;101414.28;;;17.43;100.00
7407;BME280;3745;56.964;24.128;2023-05-17T12:18:08;101453.47;;;17.51;100.00
7407;BME280;3745;56.964;24.128;2023-05-17T12:20:34;101453.59;;;17.21;100.00
7407;BME280;3745;56.964;24.128;2023-05-17T12:23:02;101469.75;;;17.40;100.00
7407;BME280;3745;56.964;24.128;2023-05-17T12:25:27;101465.38;;;17.67;100.00
7407;BME280;3745;56.964;24.128;2023-05-17T12:28:12;101409.19;;;17.40;100.00
7407;BME280;3745;56.964;24.128;2023-05-17T12:30:38;101470.38;;;17.88;100.00
7407;BME280;3745;56.964;24.128;2023-05-17T12:33:05;101467.78;;;17.95;100.00
7407;BME280;3745;56.964;24.128;2023-05-17T12:35:31;101420.19;;;17.54;100.00
7407;BME280;3745;56.964;24.128;2023-05-17T12:37:58;101473.94;;;17.63;100.00
7407;BME280;3745;56.964;24.128;2023-05-17T12:40:24;101395.63;;;17.14;100.00
7407;BME280;3745;56.964;24.128;2023-05-17T12:42:50;101460.34;;;17.46;100.00
7407;BME280;3745;56.964;24.128;2023-05-17T12:45:16;101472.28;;;17.47;100.00
7407;BME280;3745;56.964;24.128;2023-05-17T12:47:42;101439.16;;;17.02;100.00
7407;BME280;3745;56.964;24.128;2023-05-17T12:50:08;101467.28;;;17.02;100.00
7407;BME280;3745;56.964;24.128;2023-05-17T12:52:34;101426.38;;;16.96;100.00
7407;BME280;3745;56.964;24.128;2023-05-17T12:55:04;101419.63;;;16.83;100.00
7407;BME280;3745;56.964;24.128;2023-05-17T12:57:30;101460.50;;;16.95;100.00
7407;BME280;3745;56.964;24.128;2023-05-17T12:59:55;101435.81;;;16.77;100.00
7407;BME280;3745;56.964;24.128;2023-05-17T13:02:21;101460.53;;;16.86;100.00
7407;BME280;3745;56.964;24.128;2023-05-17T13:04:48;101391.53;;;16.40;100.00
7407;BME280;3745;56.964;24.128;2023-05-17T13:07:23;101457.97;;;16.86;100.00
7407;BME280;3745;56.964;24.128;2023-05-17T13:09:49;101467.28;;;17.08;100.00
7407;BME280;3745;56.964;24.128;2023-05-17T13:12:20;101456.19;;;17.13;100.00